sensor_id;sensor_type;location;lat;lon;timestamp;P1;durP1;ratioP1;P2;durP2;ratioP2
70320;SDS011;61127;55.826;37.046;2024-03-08T00:00:27;6.10;;;2.30;;
70320;SDS011;61127;55.826;37.046;2024-03-08T00:02:52;5.68;;;2.20;;
70320;SDS011;61127;55.826;37.046;2024-03-08T00:05:19;7.00;;;2.47;;
70320;SDS011;61127;55.826;37.046;2024-03-08T00:07:45;5.90;;;2.50;;
70320;SDS011;61127;55.826;37.046;2024-03-08T00:10:12;8.57;;;2.03;;
70320;SDS011;61127;55.826;37.046;2024-03-08T00:12:42;8.80;;;2.72;;
70320;SDS011;61127;55.826;37.046;2024-03-08T00:15:09;6.67;;;2.47;;
70320;SDS011;61127;55.826;37.046;2024-03-08T00:17:36;6.13;;;2.47;;
70320;SDS011;61127;55.826;37.046;2024-03-08T00:20:02;6.78;;;2.47;;
70320;SDS011;61127;55.826;37.046;2024-03-08T00:22:32;8.77;;;2.90;;
70320;SDS011;61127;55.826;37.046;2024-03-08T00:24:57;6.43;;;2.33;;
70320;SDS011;61127;55.826;37.046;2024-03-08T00:27:23;6.50;;;2.60;;
70320;SDS011;61127;55.826;37.046;2024-03-08T00:29:49;5.72;;;2.30;;
70320;SDS011;61127;55.826;37.046;2024-03-08T00:32:14;9.10;;;2.50;;
70320;SDS011;61127;55.826;37.046;2024-03-08T00:34:40;7.47;;;2.47;;
70320;SDS011;61127;55.826;37.046;2024-03-08T00:37:06;6.37;;;2.33;;
70320;SDS011;61127;55.826;37.046;2024-03-08T00:39:32;7.13;;;2.30;;
70320;SDS011;61127;55.826;37.046;2024-03-08T00:41:58;5.93;;;2.72;;
70320;SDS011;61127;55.826;37.046;2024-03-08T00:44:24;5.50;;;2.20;;
70320;SDS011;61127;55.826;37.046;2024-03-08T00:46:50;5.55;;;2.45;;
70320;SDS011;61127;55.826;37.046;2024-03-08T00:49:15;6.37;;;2.50;;
70320;SDS011;61127;55.826;37.046;2024-03-08T00:51:42;7.03;;;2.53;;
70320;SDS011;61127;55.826;37.046;2024-03-08T00:54:09;8.18;;;2.72;;
70320;SDS011;61127;55.826;37.046;2024-03-08T00:56:34;6.05;;;2.40;;
70320;SDS011;61127;55.826;37.046;2024-03-08T00:59:19;7.97;;;2.60;;
70320;SDS011;61127;55.826;37.046;2024-03-08T01:01:45;8.05;;;2.83;;
70320;SDS011;61127;55.826;37.046;2024-03-08T01:04:11;6.65;;;2.45;;
70320;SDS011;61127;55.826;37.046;2024-03-08T01:06:37;4.80;;;2.07;;
70320;SDS011;61127;55.826;37.046;2024-03-08T01:09:06;7.10;;;2.35;;
70320;SDS011;61127;55.826;37.046;2024-03-08T01:11:33;9.27;;;2.50;;
70320;SDS011;61127;55.826;37.046;2024-03-08T01:13:59;6.18;;;2.25;;
70320;SDS011;61127;55.826;37.046;2024-03-08T01:16:25;8.98;;;2.60;;
70320;SDS011;61127;55.826;37.046;2024-03-08T01:18:51;6.82;;;3.13;;
70320;SDS011;61127;55.826;37.046;2024-03-08T01:21:17;6.63;;;2.47;;
70320;SDS011;61127;55.826;37.046;2024-03-08T01:24:01;7.72;;;2.47;;
70320;SDS011;61127;55.826;37.046;2024-03-08T01:26:26;5.10;;;2.13;;
70320;SDS011;61127;55.826;37.046;2024-03-08T01:29:11;6.88;;;2.20;;
70320;SDS011;61127;55.826;37.046;2024-03-08T01:31:37;5.70;;;2.10;;
70320;SDS011;61127;55.826;37.046;2024-03-08T01:34:02;6.87;;;2.73;;
70320;SDS011;61127;55.826;37.046;2024-03-08T01:36:28;8.90;;;2.60;;
70320;SDS011;61127;55.826;37.046;2024-03-08T01:38:54;5.80;;;2.42;;
70320;SDS011;61127;55.826;37.046;2024-03-08T01:41:20;4.90;;;2.00;;
70320;SDS011;61127;55.826;37.046;2024-03-08T01:43:46;6.00;;;2.15;;
70320;SDS011;61127;55.826;37.046;2024-03-08T01:46:13;7.10;;;2.65;;
70320;SDS011;61127;55.826;37.046;2024-03-08T01:48:40;6.40;;;2.47;;
70320;SDS011;61127;55.826;37.046;2024-03-08T01:51:07;6.75;;;2.13;;
70320;SDS011;61127;55.826;37.046;2024-03-08T01:53:33;5.20;;;1.83;;
70320;SDS011;61127;55.826;37.046;2024-03-08T01:56:00;5.95;;;2.33;;
70320;SDS011;61127;55.826;37.046;2024-03-08T01:58:26;6.85;;;2.50;;
70320;SDS011;61127;55.826;37.046;2024-03-08T02:00:54;5.70;;;2.47;;
70320;SDS011;61127;55.826;37.046;2024-03-08T02:03:20;6.05;;;2.25;;
70320;SDS011;61127;55.826;37.046;2024-03-08T02:05:46;8.63;;;2.60;;
70320;SDS011;61127;55.826;37.046;2024-03-08T02:08:12;6.20;;;2.28;;
70320;SDS011;61127;55.826;37.046;2024-03-08T02:10:40;5.53;;;2.30;;
70320;SDS011;61127;55.826;37.046;2024-03-08T02:13:10;5.63;;;2.30;;
70320;SDS011;61127;55.826;37.046;2024-03-08T02:15:50;8.70;;;2.50;;
70320;SDS011;61127;55.826;37.046;2024-03-08T02:18:35;5.20;;;2.15;;
70320;SDS011;61127;55.826;37.046;2024-03-08T02:21:02;5.70;;;2.55;;
70320;SDS011;61127;55.826;37.046;2024-03-08T02:23:28;5.82;;;2.42;;
70320;SDS011;61127;55.826;37.046;2024-03-08T02:25:55;7.60;;;2.47;;
70320;SDS011;61127;55.826;37.046;2024-03-08T02:28:21;9.45;;;2.50;;
70320;SDS011;61127;55.826;37.046;2024-03-08T02:30:48;10.37;;;2.90;;
70320;SDS011;61127;55.826;37.046;2024-03-08T02:33:17;7.03;;;2.53;;
70320;SDS011;61127;55.826;37.046;2024-03-08T02:35:44;6.72;;;2.33;;
70320;SDS011;61127;55.826;37.046;2024-03-08T02:38:17;7.57;;;3.03;;
70320;SDS011;61127;55.826;37.046;2024-03-08T02:40:45;6.85;;;2.75;;
70320;SDS011;61127;55.826;37.046;2024-03-08T02:43:11;7.50;;;2.57;;
70320;SDS011;61127;55.826;37.046;2024-03-08T02:45:38;8.00;;;3.05;;
70320;SDS011;61127;55.826;37.046;2024-03-08T02:48:04;7.50;;;2.40;;
70320;SDS011;61127;55.826;37.046;2024-03-08T02:50:32;8.75;;;3.03;;
70320;SDS011;61127;55.826;37.046;2024-03-08T02:52:58;5.72;;;2.63;;
70320;SDS011;61127;55.826;37.046;2024-03-08T02:55:24;6.40;;;2.70;;
70320;SDS011;61127;55.826;37.046;2024-03-08T02:57:51;6.20;;;2.60;;
70320;SDS011;61127;55.826;37.046;2024-03-08T03:00:17;13.35;;;2.70;;
70320;SDS011;61127;55.826;37.046;2024-03-08T03:02:45;8.53;;;3.30;;
70320;SDS011;61127;55.826;37.046;2024-03-08T03:05:11;7.75;;;2.47;;
70320;SDS011;61127;55.826;37.046;2024-03-08T03:07:37;6.20;;;2.60;;
70320;SDS011;61127;55.826;37.046;2024-03-08T03:10:04;7.60;;;2.60;;
70320;SDS011;61127;55.826;37.046;2024-03-08T03:12:30;4.73;;;2.40;;
70320;SDS011;61127;55.826;37.046;2024-03-08T03:14:57;6.45;;;2.42;;
70320;SDS011;61127;55.826;37.046;2024-03-08T03:17:26;6.90;;;2.33;;
70320;SDS011;61127;55.826;37.046;2024-03-08T03:19:52;6.90;;;2.80;;
70320;SDS011;61127;55.826;37.046;2024-03-08T03:22:21;6.75;;;2.80;;
70320;SDS011;61127;55.826;37.046;2024-03-08T03:24:47;6.97;;;3.08;;
70320;SDS011;61127;55.826;37.046;2024-03-08T03:27:13;6.88;;;2.83;;
70320;SDS011;61127;55.826;37.046;2024-03-08T03:29:40;7.72;;;2.50;;
70320;SDS011;61127;55.826;37.046;2024-03-08T03:32:08;7.13;;;2.70;;
70320;SDS011;61127;55.826;37.046;2024-03-08T03:34:34;4.70;;;2.00;;
70320;SDS011;61127;55.826;37.046;2024-03-08T03:37:02;8.35;;;2.88;;
70320;SDS011;61127;55.826;37.046;2024-03-08T03:39:29;5.80;;;2.60;;
70320;SDS011;61127;55.826;37.046;2024-03-08T03:41:57;5.80;;;2.60;;
70320;SDS011;61127;55.826;37.046;2024-03-08T03:44:23;7.82;;;3.15;;
70320;SDS011;61127;55.826;37.046;2024-03-08T03:46:49;7.27;;;2.80;;
70320;SDS011;61127;55.826;37.046;2024-03-08T03:49:16;8.38;;;2.45;;
70320;SDS011;61127;55.826;37.046;2024-03-08T03:51:42;5.72;;;2.50;;
70320;SDS011;61127;55.826;37.046;2024-03-08T03:54:10;6.78;;;2.83;;
70320;SDS011;61127;55.826;37.046;2024-03-08T03:56:36;6.88;;;2.63;;
70320;SDS011;61127;55.826;37.046;2024-03-08T03:59:02;5.57;;;2.33;;
70320;SDS011;61127;55.826;37.046;2024-03-08T04:01:27;7.30;;;2.70;;
70320;SDS011;61127;55.826;37.046;2024-03-08T04:03:55;7.77;;;3.30;;
70320;SDS011;61127;55.826;37.046;2024-03-08T04:06:20;6.43;;;2.67;;
70320;SDS011;61127;55.826;37.046;2024-03-08T04:08:48;6.85;;;2.70;;
70320;SDS011;61127;55.826;37.046;2024-03-08T04:11:13;8.03;;;3.03;;
70320;SDS011;61127;55.826;37.046;2024-03-08T04:13:41;7.18;;;2.67;;
70320;SDS011;61127;55.826;37.046;2024-03-08T04:16:07;7.53;;;2.85;;
70320;SDS011;61127;55.826;37.046;2024-03-08T04:18:34;8.13;;;3.17;;
70320;SDS011;61127;55.826;37.046;2024-03-08T04:21:01;7.22;;;2.65;;
70320;SDS011;61127;55.826;37.046;2024-03-08T04:23:28;6.72;;;2.92;;
70320;SDS011;61127;55.826;37.046;2024-03-08T04:25:54;7.93;;;3.30;;
70320;SDS011;61127;55.826;37.046;2024-03-08T04:28:20;7.43;;;2.97;;
70320;SDS011;61127;55.826;37.046;2024-03-08T04:30:45;8.93;;;2.72;;
70320;SDS011;61127;55.826;37.046;2024-03-08T04:33:11;7.15;;;3.03;;
70320;SDS011;61127;55.826;37.046;2024-03-08T04:35:37;8.50;;;3.80;;
70320;SDS011;61127;55.826;37.046;2024-03-08T04:38:03;10.38;;;3.50;;
70320;SDS011;61127;55.826;37.046;2024-03-08T04:40:30;8.38;;;2.90;;
70320;SDS011;61127;55.826;37.046;2024-03-08T04:42:57;7.97;;;3.25;;
70320;SDS011;61127;55.826;37.046;2024-03-08T04:45:24;9.38;;;3.33;;
70320;SDS011;61127;55.826;37.046;2024-03-08T04:47:51;8.37;;;3.07;;
70320;SDS011;61127;55.826;37.046;2024-03-08T04:50:18;7.95;;;3.00;;
70320;SDS011;61127;55.826;37.046;2024-03-08T04:52:44;13.00;;;4.10;;
70320;SDS011;61127;55.826;37.046;2024-03-08T04:55:09;7.30;;;3.33;;
70320;SDS011;61127;55.826;37.046;2024-03-08T04:57:35;7.20;;;3.37;;
70320;SDS011;61127;55.826;37.046;2024-03-08T05:00:02;10.45;;;4.25;;
70320;SDS011;61127;55.826;37.046;2024-03-08T05:02:30;8.47;;;3.60;;
70320;SDS011;61127;55.826;37.046;2024-03-08T05:04:56;10.07;;;3.58;;
70320;SDS011;61127;55.826;37.046;2024-03-08T05:07:22;8.55;;;3.45;;
70320;SDS011;61127;55.826;37.046;2024-03-08T05:09:48;10.70;;;4.10;;
70320;SDS011;61127;55.826;37.046;2024-03-08T05:12:17;10.17;;;3.63;;
70320;SDS011;61127;55.826;37.046;2024-03-08T05:14:45;9.82;;;3.65;;
70320;SDS011;61127;55.826;37.046;2024-03-08T05:17:12;13.63;;;4.63;;
70320;SDS011;61127;55.826;37.046;2024-03-08T05:19:37;11.35;;;3.83;;
70320;SDS011;61127;55.826;37.046;2024-03-08T05:22:03;10.00;;;3.63;;
70320;SDS011;61127;55.826;37.046;2024-03-08T05:24:30;7.78;;;3.28;;
70320;SDS011;61127;55.826;37.046;2024-03-08T05:26:55;9.38;;;3.53;;
70320;SDS011;61127;55.826;37.046;2024-03-08T05:29:21;11.67;;;4.07;;
70320;SDS011;61127;55.826;37.046;2024-03-08T05:31:48;9.55;;;4.20;;
70320;SDS011;61127;55.826;37.046;2024-03-08T05:34:15;10.35;;;4.00;;
70320;SDS011;61127;55.826;37.046;2024-03-08T05:36:59;11.07;;;3.63;;
70320;SDS011;61127;55.826;37.046;2024-03-08T05:39:25;10.67;;;4.03;;
70320;SDS011;61127;55.826;37.046;2024-03-08T05:41:51;8.77;;;3.60;;
70320;SDS011;61127;55.826;37.046;2024-03-08T05:44:17;11.38;;;3.90;;
70320;SDS011;61127;55.826;37.046;2024-03-08T05:46:43;12.97;;;3.57;;
70320;SDS011;61127;55.826;37.046;2024-03-08T05:49:09;12.23;;;4.43;;
70320;SDS011;61127;55.826;37.046;2024-03-08T05:51:36;11.63;;;3.85;;
70320;SDS011;61127;55.826;37.046;2024-03-08T05:54:02;10.57;;;3.57;;
70320;SDS011;61127;55.826;37.046;2024-03-08T05:56:47;10.85;;;4.25;;
70320;SDS011;61127;55.826;37.046;2024-03-08T05:59:13;10.40;;;3.80;;
70320;SDS011;61127;55.826;37.046;2024-03-08T06:01:57;8.57;;;3.45;;
70320;SDS011;61127;55.826;37.046;2024-03-08T06:04:23;9.73;;;4.00;;
70320;SDS011;61127;55.826;37.046;2024-03-08T06:06:49;12.10;;;4.10;;
70320;SDS011;61127;55.826;37.046;2024-03-08T06:09:17;10.82;;;3.45;;
70320;SDS011;61127;55.826;37.046;2024-03-08T06:11:48;9.13;;;3.53;;
70320;SDS011;61127;55.826;37.046;2024-03-08T06:14:14;8.93;;;3.60;;
70320;SDS011;61127;55.826;37.046;2024-03-08T06:17:02;10.20;;;3.80;;
70320;SDS011;61127;55.826;37.046;2024-03-08T06:19:28;11.52;;;3.75;;
70320;SDS011;61127;55.826;37.046;2024-03-08T06:21:54;9.97;;;3.70;;
70320;SDS011;61127;55.826;37.046;2024-03-08T06:24:20;11.65;;;3.60;;
70320;SDS011;61127;55.826;37.046;2024-03-08T06:26:46;10.40;;;4.10;;
70320;SDS011;61127;55.826;37.046;2024-03-08T06:29:30;9.88;;;3.90;;
70320;SDS011;61127;55.826;37.046;2024-03-08T06:31:56;7.70;;;3.83;;
70320;SDS011;61127;55.826;37.046;2024-03-08T06:34:22;10.77;;;4.00;;
70320;SDS011;61127;55.826;37.046;2024-03-08T06:36:48;10.00;;;3.70;;
70320;SDS011;61127;55.826;37.046;2024-03-08T06:39:13;10.48;;;4.18;;
70320;SDS011;61127;55.826;37.046;2024-03-08T06:41:57;9.67;;;3.30;;
70320;SDS011;61127;55.826;37.046;2024-03-08T06:44:23;9.80;;;3.47;;
70320;SDS011;61127;55.826;37.046;2024-03-08T06:46:49;10.07;;;3.60;;
70320;SDS011;61127;55.826;37.046;2024-03-08T06:49:16;7.67;;;3.13;;
70320;SDS011;61127;55.826;37.046;2024-03-08T06:51:42;9.40;;;4.38;;
70320;SDS011;61127;55.826;37.046;2024-03-08T06:54:07;8.13;;;3.53;;
70320;SDS011;61127;55.826;37.046;2024-03-08T06:56:34;10.53;;;3.97;;
70320;SDS011;61127;55.826;37.046;2024-03-08T06:59:00;8.43;;;3.58;;
70320;SDS011;61127;55.826;37.046;2024-03-08T07:01:29;9.70;;;3.80;;
70320;SDS011;61127;55.826;37.046;2024-03-08T07:03:57;9.85;;;3.83;;
70320;SDS011;61127;55.826;37.046;2024-03-08T07:06:23;7.50;;;3.45;;
70320;SDS011;61127;55.826;37.046;2024-03-08T07:09:07;9.47;;;3.73;;
70320;SDS011;61127;55.826;37.046;2024-03-08T07:11:33;8.07;;;3.33;;
70320;SDS011;61127;55.826;37.046;2024-03-08T07:14:00;6.50;;;2.95;;
70320;SDS011;61127;55.826;37.046;2024-03-08T07:16:49;6.47;;;2.90;;
70320;SDS011;61127;55.826;37.046;2024-03-08T07:19:15;7.57;;;3.03;;
70320;SDS011;61127;55.826;37.046;2024-03-08T07:21:45;6.97;;;3.40;;
70320;SDS011;61127;55.826;37.046;2024-03-08T07:24:13;6.78;;;3.15;;
70320;SDS011;61127;55.826;37.046;2024-03-08T07:26:45;6.90;;;3.08;;
70320;SDS011;61127;55.826;37.046;2024-03-08T07:29:15;8.73;;;3.33;;
70320;SDS011;61127;55.826;37.046;2024-03-08T07:31:41;6.05;;;2.85;;
70320;SDS011;61127;55.826;37.046;2024-03-08T07:34:06;6.82;;;2.67;;
70320;SDS011;61127;55.826;37.046;2024-03-08T07:36:33;7.45;;;2.97;;
70320;SDS011;61127;55.826;37.046;2024-03-08T07:38:59;8.73;;;3.27;;
70320;SDS011;61127;55.826;37.046;2024-03-08T07:41:25;6.05;;;3.00;;
70320;SDS011;61127;55.826;37.046;2024-03-08T07:43:51;6.97;;;3.10;;
70320;SDS011;61127;55.826;37.046;2024-03-08T07:46:17;7.43;;;3.13;;
70320;SDS011;61127;55.826;37.046;2024-03-08T07:48:44;7.00;;;3.30;;
70320;SDS011;61127;55.826;37.046;2024-03-08T07:51:10;6.03;;;2.78;;
70320;SDS011;61127;55.826;37.046;2024-03-08T07:53:37;6.63;;;2.83;;
70320;SDS011;61127;55.826;37.046;2024-03-08T07:56:04;6.57;;;2.80;;
70320;SDS011;61127;55.826;37.046;2024-03-08T07:58:30;6.18;;;2.92;;
70320;SDS011;61127;55.826;37.046;2024-03-08T08:00:56;6.45;;;2.75;;
70320;SDS011;61127;55.826;37.046;2024-03-08T08:03:22;6.85;;;3.00;;
70320;SDS011;61127;55.826;37.046;2024-03-08T08:05:48;6.70;;;2.80;;
70320;SDS011;61127;55.826;37.046;2024-03-08T08:08:14;6.35;;;2.80;;
70320;SDS011;61127;55.826;37.046;2024-03-08T08:10:40;6.73;;;2.80;;
70320;SDS011;61127;55.826;37.046;2024-03-08T08:13:06;7.85;;;3.28;;
70320;SDS011;61127;55.826;37.046;2024-03-08T08:15:32;6.65;;;3.10;;
70320;SDS011;61127;55.826;37.046;2024-03-08T08:18:01;7.38;;;2.85;;
70320;SDS011;61127;55.826;37.046;2024-03-08T08:20:28;7.53;;;3.22;;
70320;SDS011;61127;55.826;37.046;2024-03-08T08:23:12;7.78;;;3.40;;
70320;SDS011;61127;55.826;37.046;2024-03-08T08:25:39;7.25;;;3.20;;
70320;SDS011;61127;55.826;37.046;2024-03-08T08:28:05;7.37;;;3.13;;
70320;SDS011;61127;55.826;37.046;2024-03-08T08:30:31;7.68;;;3.33;;
70320;SDS011;61127;55.826;37.046;2024-03-08T08:32:58;7.20;;;3.57;;
70320;SDS011;61127;55.826;37.046;2024-03-08T08:35:26;6.53;;;3.25;;
70320;SDS011;61127;55.826;37.046;2024-03-08T08:37:52;7.50;;;3.33;;
70320;SDS011;61127;55.826;37.046;2024-03-08T08:40:18;7.87;;;3.47;;
70320;SDS011;61127;55.826;37.046;2024-03-08T08:42:44;7.85;;;3.28;;
70320;SDS011;61127;55.826;37.046;2024-03-08T08:45:11;7.68;;;3.15;;
70320;SDS011;61127;55.826;37.046;2024-03-08T08:47:37;7.10;;;3.25;;
70320;SDS011;61127;55.826;37.046;2024-03-08T08:50:03;10.23;;;3.20;;
70320;SDS011;61127;55.826;37.046;2024-03-08T08:52:32;7.10;;;3.10;;
70320;SDS011;61127;55.826;37.046;2024-03-08T08:54:58;7.25;;;3.58;;
70320;SDS011;61127;55.826;37.046;2024-03-08T08:57:24;8.67;;;3.03;;
70320;SDS011;61127;55.826;37.046;2024-03-08T08:59:50;6.85;;;3.05;;
70320;SDS011;61127;55.826;37.046;2024-03-08T09:02:15;8.75;;;3.28;;
70320;SDS011;61127;55.826;37.046;2024-03-08T09:04:42;10.25;;;4.00;;
70320;SDS011;61127;55.826;37.046;2024-03-08T09:07:09;8.70;;;3.50;;
70320;SDS011;61127;55.826;37.046;2024-03-08T09:09:34;9.17;;;3.30;;
70320;SDS011;61127;55.826;37.046;2024-03-08T09:12:01;7.65;;;3.70;;
70320;SDS011;61127;55.826;37.046;2024-03-08T09:14:28;7.20;;;3.50;;
70320;SDS011;61127;55.826;37.046;2024-03-08T09:16:56;10.80;;;3.42;;
70320;SDS011;61127;55.826;37.046;2024-03-08T09:19:22;9.23;;;3.57;;
70320;SDS011;61127;55.826;37.046;2024-03-08T09:21:51;7.30;;;3.92;;
70320;SDS011;61127;55.826;37.046;2024-03-08T09:24:17;9.63;;;3.38;;
70320;SDS011;61127;55.826;37.046;2024-03-08T09:26:42;8.07;;;3.60;;
70320;SDS011;61127;55.826;37.046;2024-03-08T09:29:09;7.10;;;3.60;;
70320;SDS011;61127;55.826;37.046;2024-03-08T09:31:36;8.32;;;3.25;;
70320;SDS011;61127;55.826;37.046;2024-03-08T09:34:03;7.17;;;3.50;;
70320;SDS011;61127;55.826;37.046;2024-03-08T09:36:29;7.00;;;2.97;;
70320;SDS011;61127;55.826;37.046;2024-03-08T09:38:58;7.25;;;3.42;;
70320;SDS011;61127;55.826;37.046;2024-03-08T09:41:23;8.88;;;3.72;;
70320;SDS011;61127;55.826;37.046;2024-03-08T09:43:50;8.40;;;3.67;;
70320;SDS011;61127;55.826;37.046;2024-03-08T09:46:16;7.85;;;3.83;;
70320;SDS011;61127;55.826;37.046;2024-03-08T09:48:45;8.82;;;3.92;;
70320;SDS011;61127;55.826;37.046;2024-03-08T09:51:12;8.00;;;3.53;;
70320;SDS011;61127;55.826;37.046;2024-03-08T09:53:41;6.35;;;3.47;;
70320;SDS011;61127;55.826;37.046;2024-03-08T09:56:09;7.53;;;3.60;;
70320;SDS011;61127;55.826;37.046;2024-03-08T09:58:37;6.28;;;2.83;;
70320;SDS011;61127;55.826;37.046;2024-03-08T10:01:16;7.38;;;3.40;;
70320;SDS011;61127;55.826;37.046;2024-03-08T10:03:44;6.30;;;3.28;;
70320;SDS011;61127;55.826;37.046;2024-03-08T10:06:10;6.13;;;3.22;;
70320;SDS011;61127;55.826;37.046;2024-03-08T10:08:39;5.20;;;2.80;;
70320;SDS011;61127;55.826;37.046;2024-03-08T10:11:05;6.63;;;3.22;;
70320;SDS011;61127;55.826;37.046;2024-03-08T10:13:31;6.68;;;3.35;;
70320;SDS011;61127;55.826;37.046;2024-03-08T10:15:57;6.25;;;3.10;;
70320;SDS011;61127;55.826;37.046;2024-03-08T10:18:24;6.00;;;3.43;;
70320;SDS011;61127;55.826;37.046;2024-03-08T10:21:02;6.93;;;3.20;;
70320;SDS011;61127;55.826;37.046;2024-03-08T10:23:52;6.72;;;3.10;;
70320;SDS011;61127;55.826;37.046;2024-03-08T10:26:17;7.88;;;3.40;;
70320;SDS011;61127;55.826;37.046;2024-03-08T10:28:48;5.73;;;2.90;;
70320;SDS011;61127;55.826;37.046;2024-03-08T10:31:14;6.38;;;3.30;;
70320;SDS011;61127;55.826;37.046;2024-03-08T10:33:40;6.25;;;3.20;;
70320;SDS011;61127;55.826;37.046;2024-03-08T10:36:10;6.80;;;3.70;;
70320;SDS011;61127;55.826;37.046;2024-03-08T10:38:38;10.85;;;3.28;;
70320;SDS011;61127;55.826;37.046;2024-03-08T10:41:06;8.03;;;3.20;;
70320;SDS011;61127;55.826;37.046;2024-03-08T10:44:16;7.25;;;3.50;;
70320;SDS011;61127;55.826;37.046;2024-03-08T10:46:38;7.38;;;3.45;;
70320;SDS011;61127;55.826;37.046;2024-03-08T10:49:08;6.03;;;3.28;;
70320;SDS011;61127;55.826;37.046;2024-03-08T10:51:38;6.63;;;3.70;;
70320;SDS011;61127;55.826;37.046;2024-03-08T10:54:04;8.83;;;3.37;;
70320;SDS011;61127;55.826;37.046;2024-03-08T10:56:32;6.50;;;3.30;;
70320;SDS011;61127;55.826;37.046;2024-03-08T10:58:58;7.18;;;3.75;;
70320;SDS011;61127;55.826;37.046;2024-03-08T11:01:24;8.77;;;3.30;;
70320;SDS011;61127;55.826;37.046;2024-03-08T11:03:51;6.60;;;3.13;;
70320;SDS011;61127;55.826;37.046;2024-03-08T11:06:29;7.10;;;3.30;;
70320;SDS011;61127;55.826;37.046;2024-03-08T11:08:55;7.22;;;3.38;;
70320;SDS011;61127;55.826;37.046;2024-03-08T11:11:24;6.60;;;3.35;;
70320;SDS011;61127;55.826;37.046;2024-03-08T11:13:53;7.53;;;3.10;;
70320;SDS011;61127;55.826;37.046;2024-03-08T11:18:55;5.85;;;3.10;;
70320;SDS011;61127;55.826;37.046;2024-03-08T11:21:25;6.88;;;3.63;;
70320;SDS011;61127;55.826;37.046;2024-03-08T11:24:02;7.18;;;3.33;;
70320;SDS011;61127;55.826;37.046;2024-03-08T11:26:29;7.83;;;3.57;;
70320;SDS011;61127;55.826;37.046;2024-03-08T11:29:41;6.43;;;3.30;;
70320;SDS011;61127;55.826;37.046;2024-03-08T11:31:42;7.00;;;3.85;;
70320;SDS011;61127;55.826;37.046;2024-03-08T11:34:15;5.88;;;3.08;;
70320;SDS011;61127;55.826;37.046;2024-03-08T11:36:41;7.03;;;3.15;;
70320;SDS011;61127;55.826;37.046;2024-03-08T11:39:07;7.53;;;3.70;;
70320;SDS011;61127;55.826;37.046;2024-03-08T11:41:40;8.85;;;3.72;;
70320;SDS011;61127;55.826;37.046;2024-03-08T11:44:07;8.00;;;3.45;;
70320;SDS011;61127;55.826;37.046;2024-03-08T11:46:33;8.25;;;4.32;;
70320;SDS011;61127;55.826;37.046;2024-03-08T11:49:00;7.33;;;3.40;;
70320;SDS011;61127;55.826;37.046;2024-03-08T11:51:27;8.30;;;4.00;;
70320;SDS011;61127;55.826;37.046;2024-03-08T11:53:53;11.15;;;3.55;;
70320;SDS011;61127;55.826;37.046;2024-03-08T11:56:19;9.13;;;4.30;;
70320;SDS011;61127;55.826;37.046;2024-03-08T11:58:54;7.67;;;3.33;;
70320;SDS011;61127;55.826;37.046;2024-03-08T12:01:23;7.68;;;4.00;;
70320;SDS011;61127;55.826;37.046;2024-03-08T12:03:53;7.82;;;3.60;;
70320;SDS011;61127;55.826;37.046;2024-03-08T12:06:20;6.82;;;3.70;;
70320;SDS011;61127;55.826;37.046;2024-03-08T12:08:46;8.05;;;3.30;;
70320;SDS011;61127;55.826;37.046;2024-03-08T12:11:25;7.70;;;3.43;;
70320;SDS011;61127;55.826;37.046;2024-03-08T12:13:51;7.45;;;3.30;;
70320;SDS011;61127;55.826;37.046;2024-03-08T12:16:17;6.28;;;3.20;;
70320;SDS011;61127;55.826;37.046;2024-03-08T12:19:08;6.20;;;3.15;;
70320;SDS011;61127;55.826;37.046;2024-03-08T12:21:35;7.60;;;3.30;;
70320;SDS011;61127;55.826;37.046;2024-03-08T12:26:30;5.88;;;3.20;;
70320;SDS011;61127;55.826;37.046;2024-03-08T12:29:16;6.85;;;3.58;;
70320;SDS011;61127;55.826;37.046;2024-03-08T12:31:54;6.45;;;3.13;;
70320;SDS011;61127;55.826;37.046;2024-03-08T12:34:20;7.77;;;3.83;;
70320;SDS011;61127;55.826;37.046;2024-03-08T12:36:47;7.40;;;3.30;;
70320;SDS011;61127;55.826;37.046;2024-03-08T12:39:14;6.43;;;3.15;;
70320;SDS011;61127;55.826;37.046;2024-03-08T12:41:41;8.65;;;3.47;;
70320;SDS011;61127;55.826;37.046;2024-03-08T12:44:07;6.77;;;3.40;;
70320;SDS011;61127;55.826;37.046;2024-03-08T12:46:38;8.63;;;3.70;;
70320;SDS011;61127;55.826;37.046;2024-03-08T12:49:09;6.20;;;3.20;;
70320;SDS011;61127;55.826;37.046;2024-03-08T12:51:36;7.15;;;3.38;;
70320;SDS011;61127;55.826;37.046;2024-03-08T12:54:02;6.63;;;3.10;;
70320;SDS011;61127;55.826;37.046;2024-03-08T12:56:29;6.83;;;3.33;;
70320;SDS011;61127;55.826;37.046;2024-03-08T12:58:56;7.60;;;3.38;;
70320;SDS011;61127;55.826;37.046;2024-03-08T13:01:22;7.43;;;3.30;;
70320;SDS011;61127;55.826;37.046;2024-03-08T13:03:48;7.57;;;3.20;;
70320;SDS011;61127;55.826;37.046;2024-03-08T13:06:15;8.05;;;3.40;;
70320;SDS011;61127;55.826;37.046;2024-03-08T13:08:41;5.67;;;2.80;;
70320;SDS011;61127;55.826;37.046;2024-03-08T13:11:09;6.35;;;2.90;;
70320;SDS011;61127;55.826;37.046;2024-03-08T13:13:37;6.18;;;2.80;;
70320;SDS011;61127;55.826;37.046;2024-03-08T13:16:05;5.43;;;2.75;;
70320;SDS011;61127;55.826;37.046;2024-03-08T13:18:35;4.88;;;2.45;;
70320;SDS011;61127;55.826;37.046;2024-03-08T13:21:00;6.97;;;2.50;;
70320;SDS011;61127;55.826;37.046;2024-03-08T13:23:32;6.00;;;2.58;;
70320;SDS011;61127;55.826;37.046;2024-03-08T13:25:59;6.78;;;2.92;;
70320;SDS011;61127;55.826;37.046;2024-03-08T13:28:25;5.88;;;2.80;;
70320;SDS011;61127;55.826;37.046;2024-03-08T13:30:56;6.07;;;2.80;;
70320;SDS011;61127;55.826;37.046;2024-03-08T13:33:23;6.27;;;2.67;;
70320;SDS011;61127;55.826;37.046;2024-03-08T13:35:49;7.13;;;2.60;;
70320;SDS011;61127;55.826;37.046;2024-03-08T13:38:16;6.25;;;2.83;;
70320;SDS011;61127;55.826;37.046;2024-03-08T13:40:43;6.45;;;2.50;;
70320;SDS011;61127;55.826;37.046;2024-03-08T13:43:09;4.47;;;2.30;;
70320;SDS011;61127;55.826;37.046;2024-03-08T13:45:36;6.43;;;2.85;;
70320;SDS011;61127;55.826;37.046;2024-03-08T13:48:08;6.13;;;2.65;;
70320;SDS011;61127;55.826;37.046;2024-03-08T13:50:38;6.47;;;2.63;;
70320;SDS011;61127;55.826;37.046;2024-03-08T13:53:05;5.10;;;2.35;;
70320;SDS011;61127;55.826;37.046;2024-03-08T13:55:30;6.72;;;2.75;;
70320;SDS011;61127;55.826;37.046;2024-03-08T13:57:56;6.47;;;3.03;;
70320;SDS011;61127;55.826;37.046;2024-03-08T14:00:26;7.07;;;2.72;;
70320;SDS011;61127;55.826;37.046;2024-03-08T14:02:59;6.43;;;2.50;;
70320;SDS011;61127;55.826;37.046;2024-03-08T14:05:24;6.23;;;2.67;;
70320;SDS011;61127;55.826;37.046;2024-03-08T14:07:50;5.78;;;2.85;;
70320;SDS011;61127;55.826;37.046;2024-03-08T14:10:19;7.93;;;3.08;;
70320;SDS011;61127;55.826;37.046;2024-03-08T14:12:48;7.88;;;3.33;;
70320;SDS011;61127;55.826;37.046;2024-03-08T14:15:15;6.47;;;3.20;;
70320;SDS011;61127;55.826;37.046;2024-03-08T14:17:42;7.43;;;3.10;;
70320;SDS011;61127;55.826;37.046;2024-03-08T14:20:08;6.55;;;2.85;;
70320;SDS011;61127;55.826;37.046;2024-03-08T14:22:35;7.10;;;3.10;;
70320;SDS011;61127;55.826;37.046;2024-03-08T14:25:00;7.30;;;3.33;;
70320;SDS011;61127;55.826;37.046;2024-03-08T14:27:26;6.53;;;3.17;;
70320;SDS011;61127;55.826;37.046;2024-03-08T14:29:54;6.97;;;3.10;;
70320;SDS011;61127;55.826;37.046;2024-03-08T14:32:21;8.07;;;2.90;;
70320;SDS011;61127;55.826;37.046;2024-03-08T14:34:48;7.25;;;3.40;;
70320;SDS011;61127;55.826;37.046;2024-03-08T14:37:14;10.75;;;3.42;;
70320;SDS011;61127;55.826;37.046;2024-03-08T14:39:41;6.78;;;2.90;;
70320;SDS011;61127;55.826;37.046;2024-03-08T14:42:07;8.97;;;3.90;;